sensor_id;sensor_type;location;lat;lon;timestamp;P1;durP1;ratioP1;P2;durP2;ratioP2
22205;SDS011;11272;50.104;8.754;2023-02-13T00:02:00;11.03;;;6.33;;
22205;SDS011;11272;50.104;8.754;2023-02-13T00:04:26;12.50;;;6.50;;
22205;SDS011;11272;50.104;8.754;2023-02-13T00:06:51;11.20;;;6.07;;
22205;SDS011;11272;50.104;8.754;2023-02-13T00:09:17;12.77;;;6.63;;
22205;SDS011;11272;50.104;8.754;2023-02-13T00:11:42;13.33;;;6.10;;
22205;SDS011;11272;50.104;8.754;2023-02-13T00:14:08;9.87;;;5.67;;
22205;SDS011;11272;50.104;8.754;2023-02-13T00:16:34;10.67;;;6.07;;
22205;SDS011;11272;50.104;8.754;2023-02-13T00:19:00;11.77;;;6.00;;
22205;SDS011;11272;50.104;8.754;2023-02-13T00:21:25;9.87;;;6.30;;
22205;SDS011;11272;50.104;8.754;2023-02-13T00:23:51;11.10;;;5.97;;
22205;SDS011;11272;50.104;8.754;2023-02-13T00:26:16;11.97;;;6.30;;
22205;SDS011;11272;50.104;8.754;2023-02-13T00:28:43;11.53;;;6.13;;
22205;SDS011;11272;50.104;8.754;2023-02-13T00:31:11;10.37;;;6.30;;
22205;SDS011;11272;50.104;8.754;2023-02-13T00:33:41;10.73;;;6.43;;
22205;SDS011;11272;50.104;8.754;2023-02-13T00:36:11;12.07;;;6.80;;
22205;SDS011;11272;50.104;8.754;2023-02-13T00:38:38;9.77;;;6.47;;
22205;SDS011;11272;50.104;8.754;2023-02-13T00:41:05;10.23;;;6.33;;
22205;SDS011;11272;50.104;8.754;2023-02-13T00:43:31;15.13;;;7.17;;
22205;SDS011;11272;50.104;8.754;2023-02-13T00:45:57;13.20;;;7.13;;
22205;SDS011;11272;50.104;8.754;2023-02-13T00:48:23;14.60;;;8.20;;
22205;SDS011;11272;50.104;8.754;2023-02-13T00:50:49;16.33;;;9.30;;
22205;SDS011;11272;50.104;8.754;2023-02-13T00:53:17;13.23;;;7.53;;
22205;SDS011;11272;50.104;8.754;2023-02-13T00:55:45;14.67;;;8.13;;
22205;SDS011;11272;50.104;8.754;2023-02-13T00:58:11;13.73;;;8.07;;
22205;SDS011;11272;50.104;8.754;2023-02-13T01:00:36;12.53;;;6.73;;
22205;SDS011;11272;50.104;8.754;2023-02-13T01:03:03;14.80;;;7.17;;
22205;SDS011;11272;50.104;8.754;2023-02-13T01:05:29;12.57;;;7.70;;
22205;SDS011;11272;50.104;8.754;2023-02-13T01:07:55;15.30;;;8.70;;
22205;SDS011;11272;50.104;8.754;2023-02-13T01:10:20;14.30;;;8.20;;
22205;SDS011;11272;50.104;8.754;2023-02-13T01:12:47;13.83;;;7.67;;
22205;SDS011;11272;50.104;8.754;2023-02-13T01:15:12;17.10;;;9.20;;
22205;SDS011;11272;50.104;8.754;2023-02-13T01:17:38;15.03;;;8.20;;
22205;SDS011;11272;50.104;8.754;2023-02-13T01:20:07;14.43;;;8.00;;
22205;SDS011;11272;50.104;8.754;2023-02-13T01:22:35;13.53;;;7.10;;
22205;SDS011;11272;50.104;8.754;2023-02-13T01:25:00;14.43;;;7.43;;
22205;SDS011;11272;50.104;8.754;2023-02-13T01:27:29;14.27;;;6.97;;
22205;SDS011;11272;50.104;8.754;2023-02-13T01:29:55;14.80;;;7.60;;
22205;SDS011;11272;50.104;8.754;2023-02-13T01:32:23;15.93;;;7.80;;
22205;SDS011;11272;50.104;8.754;2023-02-13T01:34:48;15.50;;;8.33;;
22205;SDS011;11272;50.104;8.754;2023-02-13T01:37:14;15.30;;;8.13;;
22205;SDS011;11272;50.104;8.754;2023-02-13T01:39:40;15.20;;;7.40;;
22205;SDS011;11272;50.104;8.754;2023-02-13T01:42:11;13.93;;;7.67;;
22205;SDS011;11272;50.104;8.754;2023-02-13T01:47:51;13.73;;;7.30;;
22205;SDS011;11272;50.104;8.754;2023-02-13T01:50:51;15.47;;;7.40;;
22205;SDS011;11272;50.104;8.754;2023-02-13T01:53:36;17.33;;;8.33;;
22205;SDS011;11272;50.104;8.754;2023-02-13T01:58:47;16.77;;;8.93;;
22205;SDS011;11272;50.104;8.754;2023-02-13T02:01:16;15.47;;;8.20;;
22205;SDS011;11272;50.104;8.754;2023-02-13T02:03:43;18.07;;;8.70;;
22205;SDS011;11272;50.104;8.754;2023-02-13T02:06:22;18.33;;;8.97;;
22205;SDS011;11272;50.104;8.754;2023-02-13T02:08:51;16.30;;;8.60;;
22205;SDS011;11272;50.104;8.754;2023-02-13T02:11:25;18.93;;;9.27;;
22205;SDS011;11272;50.104;8.754;2023-02-13T02:13:56;19.53;;;9.77;;
22205;SDS011;11272;50.104;8.754;2023-02-13T02:16:35;20.90;;;9.93;;
22205;SDS011;11272;50.104;8.754;2023-02-13T02:19:07;17.77;;;9.13;;
22205;SDS011;11272;50.104;8.754;2023-02-13T02:21:55;17.47;;;9.13;;
22205;SDS011;11272;50.104;8.754;2023-02-13T02:30:10;17.87;;;9.40;;
22205;SDS011;11272;50.104;8.754;2023-02-13T02:33:08;19.93;;;8.93;;
22205;SDS011;11272;50.104;8.754;2023-02-13T02:36:05;21.13;;;9.67;;
22205;SDS011;11272;50.104;8.754;2023-02-13T02:41:16;17.47;;;9.03;;
22205;SDS011;11272;50.104;8.754;2023-02-13T02:50:10;17.53;;;9.13;;
22205;SDS011;11272;50.104;8.754;2023-02-13T02:52:41;20.13;;;9.43;;
22205;SDS011;11272;50.104;8.754;2023-02-13T02:58:20;17.87;;;9.50;;
22205;SDS011;11272;50.104;8.754;2023-02-13T03:01:11;19.50;;;9.10;;
22205;SDS011;11272;50.104;8.754;2023-02-13T03:04:02;19.37;;;9.73;;
22205;SDS011;11272;50.104;8.754;2023-02-13T03:06:48;19.90;;;9.80;;
22205;SDS011;11272;50.104;8.754;2023-02-13T03:09:22;19.83;;;9.10;;
22205;SDS011;11272;50.104;8.754;2023-02-13T03:12:12;18.50;;;8.83;;
22205;SDS011;11272;50.104;8.754;2023-02-13T03:15:02;18.67;;;9.30;;
22205;SDS011;11272;50.104;8.754;2023-02-13T03:17:28;22.13;;;9.70;;
22205;SDS011;11272;50.104;8.754;2023-02-13T03:20:20;19.87;;;8.87;;
22205;SDS011;11272;50.104;8.754;2023-02-13T03:23:19;18.47;;;9.23;;
22205;SDS011;11272;50.104;8.754;2023-02-13T03:31:31;18.57;;;8.63;;
22205;SDS011;11272;50.104;8.754;2023-02-13T03:34:12;17.57;;;7.90;;
22205;SDS011;11272;50.104;8.754;2023-02-13T03:36:47;21.37;;;9.77;;
22205;SDS011;11272;50.104;8.754;2023-02-13T03:42:40;19.10;;;8.97;;
22205;SDS011;11272;50.104;8.754;2023-02-13T03:45:13;19.83;;;9.47;;
22205;SDS011;11272;50.104;8.754;2023-02-13T03:48:11;20.73;;;9.70;;
22205;SDS011;11272;50.104;8.754;2023-02-13T03:50:59;21.27;;;9.77;;
22205;SDS011;11272;50.104;8.754;2023-02-13T03:53:27;21.63;;;9.20;;
22205;SDS011;11272;50.104;8.754;2023-02-13T03:55:57;20.00;;;9.50;;
22205;SDS011;11272;50.104;8.754;2023-02-13T03:58:45;18.07;;;8.97;;
22205;SDS011;11272;50.104;8.754;2023-02-13T04:01:33;19.03;;;9.50;;
22205;SDS011;11272;50.104;8.754;2023-02-13T04:04:11;22.03;;;10.20;;
22205;SDS011;11272;50.104;8.754;2023-02-13T04:09:20;21.40;;;9.77;;
22205;SDS011;11272;50.104;8.754;2023-02-13T04:17:16;20.33;;;9.77;;
22205;SDS011;11272;50.104;8.754;2023-02-13T04:19:47;22.17;;;9.77;;
22205;SDS011;11272;50.104;8.754;2023-02-13T04:22:13;24.40;;;10.00;;
22205;SDS011;11272;50.104;8.754;2023-02-13T04:24:39;25.27;;;10.57;;
22205;SDS011;11272;50.104;8.754;2023-02-13T04:27:05;26.27;;;10.57;;
22205;SDS011;11272;50.104;8.754;2023-02-13T04:29:30;24.07;;;11.47;;
22205;SDS011;11272;50.104;8.754;2023-02-13T04:31:56;23.97;;;10.20;;
22205;SDS011;11272;50.104;8.754;2023-02-13T04:34:22;24.77;;;10.40;;
22205;SDS011;11272;50.104;8.754;2023-02-13T04:36:47;24.90;;;11.17;;
22205;SDS011;11272;50.104;8.754;2023-02-13T04:39:13;26.23;;;12.20;;
22205;SDS011;11272;50.104;8.754;2023-02-13T04:41:38;30.20;;;12.27;;
22205;SDS011;11272;50.104;8.754;2023-02-13T04:44:04;25.63;;;10.60;;
22205;SDS011;11272;50.104;8.754;2023-02-13T04:46:30;26.83;;;10.83;;
22205;SDS011;11272;50.104;8.754;2023-02-13T04:48:55;25.53;;;11.43;;
22205;SDS011;11272;50.104;8.754;2023-02-13T04:51:22;26.40;;;11.67;;
22205;SDS011;11272;50.104;8.754;2023-02-13T04:53:47;22.60;;;10.70;;
22205;SDS011;11272;50.104;8.754;2023-02-13T04:56:14;29.47;;;11.27;;
22205;SDS011;11272;50.104;8.754;2023-02-13T04:58:39;24.97;;;10.30;;
22205;SDS011;11272;50.104;8.754;2023-02-13T05:01:13;22.53;;;10.27;;
22205;SDS011;11272;50.104;8.754;2023-02-13T05:03:40;24.07;;;10.27;;
22205;SDS011;11272;50.104;8.754;2023-02-13T05:06:06;26.10;;;10.80;;
22205;SDS011;11272;50.104;8.754;2023-02-13T05:08:32;26.00;;;10.63;;
22205;SDS011;11272;50.104;8.754;2023-02-13T05:10:58;24.17;;;11.30;;
22205;SDS011;11272;50.104;8.754;2023-02-13T05:13:23;28.80;;;11.10;;
22205;SDS011;11272;50.104;8.754;2023-02-13T05:15:49;25.40;;;11.13;;
22205;SDS011;11272;50.104;8.754;2023-02-13T05:18:16;28.20;;;10.90;;
22205;SDS011;11272;50.104;8.754;2023-02-13T05:20:44;27.23;;;11.63;;
22205;SDS011;11272;50.104;8.754;2023-02-13T05:23:30;27.93;;;11.37;;
22205;SDS011;11272;50.104;8.754;2023-02-13T05:25:55;30.53;;;11.43;;
22205;SDS011;11272;50.104;8.754;2023-02-13T05:28:21;27.50;;;12.20;;
22205;SDS011;11272;50.104;8.754;2023-02-13T05:31:05;26.90;;;11.23;;
22205;SDS011;11272;50.104;8.754;2023-02-13T05:33:30;26.70;;;12.57;;
22205;SDS011;11272;50.104;8.754;2023-02-13T05:35:56;28.33;;;12.27;;
22205;SDS011;11272;50.104;8.754;2023-02-13T05:38:22;28.20;;;12.83;;
22205;SDS011;11272;50.104;8.754;2023-02-13T05:40:47;30.87;;;12.00;;
22205;SDS011;11272;50.104;8.754;2023-02-13T05:43:13;29.93;;;12.37;;
22205;SDS011;11272;50.104;8.754;2023-02-13T05:45:39;31.67;;;11.87;;
22205;SDS011;11272;50.104;8.754;2023-02-13T05:48:05;28.93;;;12.67;;
22205;SDS011;11272;50.104;8.754;2023-02-13T05:50:31;32.63;;;12.80;;
22205;SDS011;11272;50.104;8.754;2023-02-13T05:52:56;37.93;;;12.77;;
22205;SDS011;11272;50.104;8.754;2023-02-13T05:55:22;33.20;;;13.63;;
22205;SDS011;11272;50.104;8.754;2023-02-13T05:57:48;35.40;;;13.37;;
22205;SDS011;11272;50.104;8.754;2023-02-13T06:00:14;37.97;;;14.33;;
22205;SDS011;11272;50.104;8.754;2023-02-13T06:02:40;31.90;;;14.07;;
22205;SDS011;11272;50.104;8.754;2023-02-13T06:05:06;33.80;;;13.50;;
22205;SDS011;11272;50.104;8.754;2023-02-13T06:07:31;38.50;;;14.00;;
22205;SDS011;11272;50.104;8.754;2023-02-13T06:09:57;35.37;;;14.20;;
22205;SDS011;11272;50.104;8.754;2023-02-13T06:12:24;31.80;;;13.17;;
22205;SDS011;11272;50.104;8.754;2023-02-13T06:14:49;34.30;;;13.37;;
22205;SDS011;11272;50.104;8.754;2023-02-13T06:17:15;31.40;;;13.07;;
22205;SDS011;11272;50.104;8.754;2023-02-13T06:19:40;32.60;;;13.13;;
22205;SDS011;11272;50.104;8.754;2023-02-13T06:22:06;29.97;;;12.47;;
22205;SDS011;11272;50.104;8.754;2023-02-13T06:24:32;29.43;;;12.90;;
22205;SDS011;11272;50.104;8.754;2023-02-13T06:26:57;35.40;;;13.23;;
22205;SDS011;11272;50.104;8.754;2023-02-13T06:29:23;30.30;;;12.47;;
22205;SDS011;11272;50.104;8.754;2023-02-13T06:31:48;33.27;;;14.10;;
22205;SDS011;11272;50.104;8.754;2023-02-13T06:34:14;30.67;;;13.17;;
22205;SDS011;11272;50.104;8.754;2023-02-13T06:36:43;31.53;;;13.53;;
22205;SDS011;11272;50.104;8.754;2023-02-13T06:39:09;33.93;;;13.00;;
22205;SDS011;11272;50.104;8.754;2023-02-13T06:41:35;29.23;;;13.23;;
22205;SDS011;11272;50.104;8.754;2023-02-13T06:44:00;27.97;;;12.17;;
22205;SDS011;11272;50.104;8.754;2023-02-13T06:46:26;34.50;;;13.97;;
22205;SDS011;11272;50.104;8.754;2023-02-13T06:48:51;37.40;;;13.60;;
22205;SDS011;11272;50.104;8.754;2023-02-13T06:51:17;37.80;;;14.30;;
22205;SDS011;11272;50.104;8.754;2023-02-13T06:53:43;39.83;;;14.20;;
22205;SDS011;11272;50.104;8.754;2023-02-13T06:56:08;44.37;;;15.57;;
22205;SDS011;11272;50.104;8.754;2023-02-13T06:58:35;42.93;;;16.50;;
22205;SDS011;11272;50.104;8.754;2023-02-13T07:01:02;42.03;;;16.30;;
22205;SDS011;11272;50.104;8.754;2023-02-13T07:03:28;48.90;;;16.83;;
22205;SDS011;11272;50.104;8.754;2023-02-13T07:05:53;42.60;;;16.53;;
22205;SDS011;11272;50.104;8.754;2023-02-13T07:08:20;41.73;;;15.57;;
22205;SDS011;11272;50.104;8.754;2023-02-13T07:10:46;42.47;;;15.63;;
22205;SDS011;11272;50.104;8.754;2023-02-13T07:13:11;44.57;;;15.63;;
22205;SDS011;11272;50.104;8.754;2023-02-13T07:15:37;39.47;;;15.67;;
22205;SDS011;11272;50.104;8.754;2023-02-13T07:18:03;45.73;;;15.93;;
22205;SDS011;11272;50.104;8.754;2023-02-13T07:20:29;44.50;;;15.87;;
22205;SDS011;11272;50.104;8.754;2023-02-13T07:22:59;45.87;;;16.47;;
22205;SDS011;11272;50.104;8.754;2023-02-13T07:25:26;43.40;;;16.13;;
22205;SDS011;11272;50.104;8.754;2023-02-13T07:27:53;46.23;;;17.07;;
22205;SDS011;11272;50.104;8.754;2023-02-13T07:30:19;44.83;;;16.03;;
22205;SDS011;11272;50.104;8.754;2023-02-13T07:32:45;46.93;;;16.53;;
22205;SDS011;11272;50.104;8.754;2023-02-13T07:35:13;47.93;;;16.40;;
22205;SDS011;11272;50.104;8.754;2023-02-13T07:37:39;44.10;;;16.33;;
22205;SDS011;11272;50.104;8.754;2023-02-13T07:40:05;45.47;;;16.00;;
22205;SDS011;11272;50.104;8.754;2023-02-13T07:42:32;46.27;;;16.93;;
22205;SDS011;11272;50.104;8.754;2023-02-13T07:44:58;45.47;;;16.20;;
22205;SDS011;11272;50.104;8.754;2023-02-13T07:47:24;40.47;;;16.57;;
22205;SDS011;11272;50.104;8.754;2023-02-13T07:49:50;44.57;;;16.53;;
22205;SDS011;11272;50.104;8.754;2023-02-13T07:52:16;44.17;;;15.90;;
22205;SDS011;11272;50.104;8.754;2023-02-13T07:57:31;39.73;;;15.80;;
22205;SDS011;11272;50.104;8.754;2023-02-13T08:02:53;40.67;;;15.67;;
22205;SDS011;11272;50.104;8.754;2023-02-13T08:05:18;31.77;;;14.43;;
22205;SDS011;11272;50.104;8.754;2023-02-13T08:07:44;37.57;;;14.80;;
22205;SDS011;11272;50.104;8.754;2023-02-13T08:10:30;36.93;;;12.90;;
22205;SDS011;11272;50.104;8.754;2023-02-13T08:13:15;36.30;;;14.83;;
22205;SDS011;11272;50.104;8.754;2023-02-13T08:15:42;31.47;;;13.57;;
22205;SDS011;11272;50.104;8.754;2023-02-13T08:18:11;32.90;;;13.77;;
22205;SDS011;11272;50.104;8.754;2023-02-13T08:20:40;32.83;;;13.73;;
22205;SDS011;11272;50.104;8.754;2023-02-13T08:23:06;29.13;;;12.87;;
22205;SDS011;11272;50.104;8.754;2023-02-13T08:31:11;29.10;;;12.70;;
22205;SDS011;11272;50.104;8.754;2023-02-13T08:33:37;26.00;;;11.90;;
22205;SDS011;11272;50.104;8.754;2023-02-13T08:36:05;25.70;;;12.17;;
22205;SDS011;11272;50.104;8.754;2023-02-13T08:41:27;25.60;;;11.40;;
22205;SDS011;11272;50.104;8.754;2023-02-13T08:43:53;29.37;;;12.20;;
22205;SDS011;11272;50.104;8.754;2023-02-13T08:46:18;25.13;;;11.57;;
22205;SDS011;11272;50.104;8.754;2023-02-13T08:48:44;26.37;;;11.80;;
22205;SDS011;11272;50.104;8.754;2023-02-13T08:51:10;30.57;;;12.23;;
22205;SDS011;11272;50.104;8.754;2023-02-13T08:53:37;27.33;;;12.17;;
22205;SDS011;11272;50.104;8.754;2023-02-13T08:56:03;23.57;;;11.60;;
22205;SDS011;11272;50.104;8.754;2023-02-13T08:58:29;27.33;;;13.20;;
22205;SDS011;11272;50.104;8.754;2023-02-13T09:00:55;24.67;;;12.17;;
22205;SDS011;11272;50.104;8.754;2023-02-13T09:03:21;23.60;;;11.37;;
22205;SDS011;11272;50.104;8.754;2023-02-13T09:05:47;25.97;;;12.67;;
22205;SDS011;11272;50.104;8.754;2023-02-13T09:08:13;29.37;;;13.30;;
22205;SDS011;11272;50.104;8.754;2023-02-13T09:10:39;22.97;;;11.53;;
22205;SDS011;11272;50.104;8.754;2023-02-13T09:13:07;23.47;;;12.30;;
22205;SDS011;11272;50.104;8.754;2023-02-13T09:15:36;22.30;;;12.10;;
22205;SDS011;11272;50.104;8.754;2023-02-13T09:18:03;23.57;;;12.07;;
22205;SDS011;11272;50.104;8.754;2023-02-13T09:20:28;26.40;;;11.67;;
22205;SDS011;11272;50.104;8.754;2023-02-13T09:22:54;23.50;;;11.87;;
22205;SDS011;11272;50.104;8.754;2023-02-13T09:25:20;22.47;;;11.77;;
22205;SDS011;11272;50.104;8.754;2023-02-13T09:27:47;25.47;;;11.63;;
22205;SDS011;11272;50.104;8.754;2023-02-13T09:30:13;20.43;;;10.83;;
22205;SDS011;11272;50.104;8.754;2023-02-13T09:32:48;23.93;;;11.57;;
22205;SDS011;11272;50.104;8.754;2023-02-13T09:35:16;21.15;;;11.95;;
22205;SDS011;11272;50.104;8.754;2023-02-13T09:37:42;20.87;;;11.23;;
22205;SDS011;11272;50.104;8.754;2023-02-13T09:40:21;20.83;;;11.60;;
22205;SDS011;11272;50.104;8.754;2023-02-13T09:42:51;18.47;;;10.17;;
22205;SDS011;11272;50.104;8.754;2023-02-13T09:48:14;19.80;;;10.57;;
22205;SDS011;11272;50.104;8.754;2023-02-13T09:53:36;17.70;;;10.53;;
22205;SDS011;11272;50.104;8.754;2023-02-13T10:13:51;14.87;;;8.87;;
22205;SDS011;11272;50.104;8.754;2023-02-13T10:19:36;12.97;;;8.57;;
22205;SDS011;11272;50.104;8.754;2023-02-13T10:22:11;12.80;;;7.93;;
22205;SDS011;11272;50.104;8.754;2023-02-13T10:27:31;13.83;;;8.93;;
22205;SDS011;11272;50.104;8.754;2023-02-13T10:30:20;11.53;;;7.67;;
22205;SDS011;11272;50.104;8.754;2023-02-13T10:35:29;12.40;;;7.83;;
22205;SDS011;11272;50.104;8.754;2023-02-13T10:43:37;9.50;;;6.70;;
22205;SDS011;11272;50.104;8.754;2023-02-13T10:59:51;14.10;;;7.60;;
22205;SDS011;11272;50.104;8.754;2023-02-13T11:02:42;12.23;;;6.90;;
22205;SDS011;11272;50.104;8.754;2023-02-13T11:07:41;9.13;;;6.60;;
22205;SDS011;11272;50.104;8.754;2023-02-13T11:10:17;11.33;;;6.97;;
22205;SDS011;11272;50.104;8.754;2023-02-13T11:12:46;8.53;;;6.30;;
22205;SDS011;11272;50.104;8.754;2023-02-13T11:15:20;8.40;;;6.47;;
22205;SDS011;11272;50.104;8.754;2023-02-13T11:18:12;8.13;;;6.30;;
22205;SDS011;11272;50.104;8.754;2023-02-13T11:20:44;6.90;;;5.80;;
22205;SDS011;11272;50.104;8.754;2023-02-13T11:23:14;9.50;;;6.27;;
22205;SDS011;11272;50.104;8.754;2023-02-13T11:25:41;10.90;;;6.73;;
22205;SDS011;11272;50.104;8.754;2023-02-13T11:28:21;11.47;;;6.00;;
22205;SDS011;11272;50.104;8.754;2023-02-13T11:30:47;8.73;;;6.60;;
22205;SDS011;11272;50.104;8.754;2023-02-13T11:35:44;7.27;;;5.73;;
22205;SDS011;11272;50.104;8.754;2023-02-13T11:44:02;11.77;;;5.83;;
22205;SDS011;11272;50.104;8.754;2023-02-13T11:49:27;8.00;;;6.23;;
22205;SDS011;11272;50.104;8.754;2023-02-13T11:51:55;10.90;;;5.50;;
22205;SDS011;11272;50.104;8.754;2023-02-13T11:54:38;7.13;;;5.67;;
22205;SDS011;11272;50.104;8.754;2023-02-13T11:57:20;9.77;;;5.50;;
22205;SDS011;11272;50.104;8.754;2023-02-13T11:59:49;10.73;;;5.90;;
22205;SDS011;11272;50.104;8.754;2023-02-13T12:02:21;5.50;;;4.90;;
22205;SDS011;11272;50.104;8.754;2023-02-13T12:07:33;7.15;;;5.28;;
22205;SDS011;11272;50.104;8.754;2023-02-13T12:10:00;8.35;;;5.28;;
22205;SDS011;11272;50.104;8.754;2023-02-13T12:12:34;6.68;;;5.47;;
22205;SDS011;11272;50.104;8.754;2023-02-13T12:15:17;7.72;;;5.03;;
22205;SDS011;11272;50.104;8.754;2023-02-13T12:17:48;7.03;;;4.82;;
22205;SDS011;11272;50.104;8.754;2023-02-13T12:29:13;6.82;;;4.90;;
22205;SDS011;11272;50.104;8.754;2023-02-13T12:32:20;7.65;;;5.00;;
22205;SDS011;11272;50.104;8.754;2023-02-13T12:38:29;5.20;;;4.10;;
22205;SDS011;11272;50.104;8.754;2023-02-13T12:40:58;5.60;;;4.63;;
22205;SDS011;11272;50.104;8.754;2023-02-13T12:46:05;13.30;;;5.25;;
22205;SDS011;11272;50.104;8.754;2023-02-13T12:48:49;7.40;;;4.30;;
22205;SDS011;11272;50.104;8.754;2023-02-13T13:10:02;8.33;;;4.17;;
22205;SDS011;11272;50.104;8.754;2023-02-13T13:12:57;7.60;;;4.27;;
22205;SDS011;11272;50.104;8.754;2023-02-13T13:18:23;5.27;;;3.83;;
22205;SDS011;11272;50.104;8.754;2023-02-13T13:21:02;5.57;;;2.77;;
22205;SDS011;11272;50.104;8.754;2023-02-13T13:26:21;6.10;;;3.00;;
22205;SDS011;11272;50.104;8.754;2023-02-13T13:29:11;5.53;;;2.90;;
22205;SDS011;11272;50.104;8.754;2023-02-13T13:31:45;3.83;;;3.20;;
22205;SDS011;11272;50.104;8.754;2023-02-13T13:34:19;4.37;;;3.00;;
22205;SDS011;11272;50.104;8.754;2023-02-13T13:36:59;3.90;;;2.77;;
22205;SDS011;11272;50.104;8.754;2023-02-13T13:47:25;4.13;;;2.90;;
22205;SDS011;11272;50.104;8.754;2023-02-13T13:50:22;3.83;;;2.60;;
22205;SDS011;11272;50.104;8.754;2023-02-13T13:58:21;5.50;;;3.30;;
22205;SDS011;11272;50.104;8.754;2023-02-13T14:03:42;8.93;;;3.50;;
22205;SDS011;11272;50.104;8.754;2023-02-13T14:06:12;5.03;;;3.60;;
22205;SDS011;11272;50.104;8.754;2023-02-13T14:13:54;6.53;;;3.97;;
22205;SDS011;11272;50.104;8.754;2023-02-13T14:19:01;7.67;;;4.03;;
22205;SDS011;11272;50.104;8.754;2023-02-13T14:21:29;5.27;;;3.77;;
22205;SDS011;11272;50.104;8.754;2023-02-13T14:23:54;5.70;;;3.80;;
22205;SDS011;11272;50.104;8.754;2023-02-13T14:26:35;6.13;;;4.23;;
22205;SDS011;11272;50.104;8.754;2023-02-13T14:29:22;4.77;;;3.30;;
22205;SDS011;11272;50.104;8.754;2023-02-13T14:31:56;4.43;;;3.77;;
22205;SDS011;11272;50.104;8.754;2023-02-13T14:34:26;6.77;;;3.67;;
22205;SDS011;11272;50.104;8.754;2023-02-13T14:37:04;5.77;;;3.90;;
22205;SDS011;11272;50.104;8.754;2023-02-13T14:42:39;6.87;;;4.20;;
22205;SDS011;11272;50.104;8.754;2023-02-13T14:45:27;6.23;;;4.17;;
22205;SDS011;11272;50.104;8.754;2023-02-13T14:47:57;4.83;;;3.90;;
22205;SDS011;11272;50.104;8.754;2023-02-13T14:50:50;6.63;;;3.70;;
22205;SDS011;11272;50.104;8.754;2023-02-13T14:53:19;8.40;;;3.50;;
22205;SDS011;11272;50.104;8.754;2023-02-13T14:55:56;6.17;;;3.50;;
22205;SDS011;11272;50.104;8.754;2023-02-13T14:58:35;5.77;;;3.83;;
22205;SDS011;11272;50.104;8.754;2023-02-13T15:04:09;6.60;;;3.60;;
22205;SDS011;11272;50.104;8.754;2023-02-13T15:06:39;4.97;;;3.37;;
22205;SDS011;11272;50.104;8.754;2023-02-13T15:09:14;5.10;;;3.60;;
22205;SDS011;11272;50.104;8.754;2023-02-13T15:11:51;8.00;;;3.70;;
22205;SDS011;11272;50.104;8.754;2023-02-13T15:16:58;5.37;;;2.93;;
22205;SDS011;11272;50.104;8.754;2023-02-13T15:19:30;5.03;;;3.00;;
22205;SDS011;11272;50.104;8.754;2023-02-13T15:22:03;6.10;;;3.13;;
22205;SDS011;11272;50.104;8.754;2023-02-13T15:24:46;6.37;;;3.20;;
22205;SDS011;11272;50.104;8.754;2023-02-13T15:27:19;5.50;;;3.17;;
22205;SDS011;11272;50.104;8.754;2023-02-13T15:29:53;6.70;;;4.03;;
22205;SDS011;11272;50.104;8.754;2023-02-13T15:32:20;5.30;;;3.43;;
22205;SDS011;11272;50.104;8.754;2023-02-13T15:34:52;8.07;;;3.67;;
22205;SDS011;11272;50.104;8.754;2023-02-13T15:37:19;5.03;;;3.23;;
22205;SDS011;11272;50.104;8.754;2023-02-13T15:39:46;5.50;;;3.33;;
22205;SDS011;11272;50.104;8.754;2023-02-13T15:42:12;4.87;;;3.30;;
22205;SDS011;11272;50.104;8.754;2023-02-13T15:44:38;4.67;;;3.13;;
22205;SDS011;11272;50.104;8.754;2023-02-13T15:47:05;6.10;;;3.03;;
22205;SDS011;11272;50.104;8.754;2023-02-13T15:49:36;5.03;;;3.20;;
22205;SDS011;11272;50.104;8.754;2023-02-13T15:52:08;4.57;;;3.00;;
22205;SDS011;11272;50.104;8.754;2023-02-13T15:54:49;5.00;;;2.90;;
22205;SDS011;11272;50.104;8.754;2023-02-13T15:57:16;8.17;;;2.97;;
22205;SDS011;11272;50.104;8.754;2023-02-13T15:59:43;4.23;;;2.87;;
22205;SDS011;11272;50.104;8.754;2023-02-13T16:02:13;11.57;;;3.37;;
22205;SDS011;11272;50.104;8.754;2023-02-13T16:04:44;5.80;;;2.70;;
22205;SDS011;11272;50.104;8.754;2023-02-13T16:07:10;3.97;;;2.47;;
22205;SDS011;11272;50.104;8.754;2023-02-13T16:09:37;3.20;;;2.20;;
22205;SDS011;11272;50.104;8.754;2023-02-13T16:14:58;4.03;;;2.50;;
22205;SDS011;11272;50.104;8.754;2023-02-13T16:20:03;2.60;;;1.97;;
22205;SDS011;11272;50.104;8.754;2023-02-13T16:27:58;4.50;;;2.60;;
22205;SDS011;11272;50.104;8.754;2023-02-13T16:33:09;5.57;;;2.40;;
22205;SDS011;11272;50.104;8.754;2023-02-13T16:35:40;5.90;;;2.77;;
22205;SDS011;11272;50.104;8.754;2023-02-13T16:41:03;3.63;;;2.63;;
22205;SDS011;11272;50.104;8.754;2023-02-13T16:43:54;5.77;;;2.60;;
22205;SDS011;11272;50.104;8.754;2023-02-13T16:49:16;4.60;;;3.00;;
22205;SDS011;11272;50.104;8.754;2023-02-13T17:02:41;5.93;;;3.83;;
22205;SDS011;11272;50.104;8.754;2023-02-13T17:07:33;8.63;;;4.73;;
22205;SDS011;11272;50.104;8.754;2023-02-13T17:10:00;9.97;;;4.60;;
22205;SDS011;11272;50.104;8.754;2023-02-13T17:15:24;8.83;;;4.77;;
22205;SDS011;11272;50.104;8.754;2023-02-13T17:17:51;12.77;;;4.60;;
22205;SDS011;11272;50.104;8.754;2023-02-13T17:20:23;8.37;;;4.90;;
22205;SDS011;11272;50.104;8.754;2023-02-13T17:22:57;11.60;;;4.63;;
22205;SDS011;11272;50.104;8.754;2023-02-13T17:25:32;14.37;;;5.07;;
22205;SDS011;11272;50.104;8.754;2023-02-13T17:28:21;11.50;;;5.40;;
22205;SDS011;11272;50.104;8.754;2023-02-13T17:30:51;6.83;;;4.47;;
22205;SDS011;11272;50.104;8.754;2023-02-13T17:33:27;8.47;;;5.53;;
22205;SDS011;11272;50.104;8.754;2023-02-13T17:35:54;9.67;;;6.10;;
22205;SDS011;11272;50.104;8.754;2023-02-13T17:38:22;12.33;;;5.57;;
22205;SDS011;11272;50.104;8.754;2023-02-13T17:41:02;8.93;;;4.83;;
22205;SDS011;11272;50.104;8.754;2023-02-13T17:44:00;10.33;;;5.50;;
22205;SDS011;11272;50.104;8.754;2023-02-13T17:46:26;14.53;;;5.67;;
22205;SDS011;11272;50.104;8.754;2023-02-13T17:48:51;9.43;;;5.30;;
22205;SDS011;11272;50.104;8.754;2023-02-13T17:51:17;8.80;;;5.17;;
22205;SDS011;11272;50.104;8.754;2023-02-13T17:53:43;13.73;;;5.80;;
22205;SDS011;11272;50.104;8.754;2023-02-13T17:56:08;10.67;;;5.60;;
22205;SDS011;11272;50.104;8.754;2023-02-13T17:58:34;9.77;;;5.83;;
22205;SDS011;11272;50.104;8.754;2023-02-13T18:00:59;11.83;;;6.50;;
22205;SDS011;11272;50.104;8.754;2023-02-13T18:03:25;12.70;;;6.07;;
22205;SDS011;11272;50.104;8.754;2023-02-13T18:05:51;10.43;;;5.77;;
22205;SDS011;11272;50.104;8.754;2023-02-13T18:08:17;18.73;;;6.70;;
22205;SDS011;11272;50.104;8.754;2023-02-13T18:10:44;9.80;;;5.30;;
22205;SDS011;11272;50.104;8.754;2023-02-13T18:13:10;10.27;;;6.10;;
22205;SDS011;11272;50.104;8.754;2023-02-13T18:15:41;10.00;;;5.80;;
22205;SDS011;11272;50.104;8.754;2023-02-13T18:18:08;10.90;;;6.40;;
22205;SDS011;11272;50.104;8.754;2023-02-13T18:20:35;13.30;;;6.93;;
22205;SDS011;11272;50.104;8.754;2023-02-13T18:23:00;10.10;;;6.40;;
22205;SDS011;11272;50.104;8.754;2023-02-13T18:25:27;13.47;;;6.63;;
22205;SDS011;11272;50.104;8.754;2023-02-13T18:27:53;14.50;;;7.07;;
22205;SDS011;11272;50.104;8.754;2023-02-13T18:30:20;12.87;;;7.30;;
22205;SDS011;11272;50.104;8.754;2023-02-13T18:32:49;11.20;;;6.80;;
22205;SDS011;11272;50.104;8.754;2023-02-13T18:35:17;10.77;;;6.87;;
22205;SDS011;11272;50.104;8.754;2023-02-13T18:37:43;10.50;;;6.50;;
22205;SDS011;11272;50.104;8.754;2023-02-13T18:40:09;13.70;;;7.07;;
22205;SDS011;11272;50.104;8.754;2023-02-13T18:42:36;14.10;;;7.73;;
22205;SDS011;11272;50.104;8.754;2023-02-13T18:45:03;14.43;;;7.87;;